LPPTLGKO

Guest
Details From LPPT - Lisboa
To LGKO - Kos
Flight Number -
Tags Generated
Created
Modified
Stats Distance 1,713 nm / 3,173 km
Max Altitude 0 ft / 0 m
Waypoints 8
Social Downloads 1
Likes 0
Share VATSIM

Download

Looking for another format? Having issues loading an existing format? Contact us
Advertisement - Login to hide

Notes

Generated

Route

LPPT LOGRO IBA53 CIRTA RAPIS ASTOV KOPAR LGKO

ID Type Via Altitude Latitude Longitude Leg Dist Tot Dist Heading (true) Name
O LPPT APT - 0 ft / 0 m 38.78624˚ -9.13721˚ - 0 nm - -
LOGRO FIX - 0 ft / 0 m 39.00000˚ -3.89943˚ 245 nm 245 nm 85° / 89° -
IBA53 FIX - 0 ft / 0 m 39.11647˚ 1.32273˚ 243 nm 488 nm 87° / 90° -
CIRTA FIX - 0 ft / 0 m 39.00000˚ 7.03333˚ 266 nm 755 nm 90° / 93° -
RAPIS FIX - 0 ft / 0 m 38.40333˚ 16.59500˚ 449 nm 1204 nm 92° / 98° -
ASTOV FIX - 0 ft / 0 m 37.42083˚ 22.53444˚ 287 nm 1491 nm 100° / 104° -
KOPAR FIX - 0 ft / 0 m 36.83028˚ 26.68861˚ 202 nm 1694 nm 99° / 101° -
O LGKO APT - 0 ft / 0 m 36.80364˚ 27.08364˚ 19 nm 1713 nm 95° / 95° -

Altitude Profile

Advertisement - Login to hide

Weather


0- 5 10 15 20 25 30 35+ Temperature / ° C

Clouds and Precipitation
Forecast for 2018-05-21 12:00 UTC. Updated 10 minutes ago

Ground ~20,000 ft ~40,000 ft Winds

LPPT

Details ICAO LPPT (LIS)
Name Lisboa
Region Portugal
Timezone Europe/Lisbon (UTC+1.0)
Stats Elevation 374 ft / 114 m (AMSL)
Location 38.778559° -9.135146°
Runways 2
Magnetic Variation 2.310° W

METAR

LPPT 211100Z 10007KT 060V130 CAVOK 18/12 Q1013

Decode

TAF

TAF LPPT 210500Z 2106/2212 VRB03KT 9999 SCT010 TEMPO 2106/2108 BKN008 BECMG 2109/2112 23010KT SCT025 BECMG 2119/2122 VRB03KT SCT015 BECMG 2203/2205 16008KT TEMPO 2203/2209 BKN015 BECMG 2209/2211 FEW030

Decode

Departure Runways

ID Width Length Bearing (true) Bearing (mag) Surface Threshold Offset Overrun Length
03 148 ft / 45 m 12,518 ft / 3,815 m 22.70° 25.01° Asphalt 296 ft / 90 m 0 ft / 0 m
17 148 ft / 45 m 7,922 ft / 2,415 m 168.38° 170.69° Asphalt 0 ft / 0 m 0 ft / 0 m
21 148 ft / 45 m 12,518 ft / 3,815 m 202.72° 205.03° Asphalt 1,969 ft / 600 m 0 ft / 0 m
35 148 ft / 45 m 7,922 ft / 2,415 m 348.38° 350.69° Asphalt 492 ft / 150 m 0 ft / 0 m

LGKO

Details ICAO LGKO (KGS)
Name KOS
Region Greece
Timezone Europe/Athens (UTC+3.0)
Stats Elevation 412 ft / 126 m (AMSL)
Location 36.794403° 27.090764°
Runways 1
Magnetic Variation 4.765° E

METAR

LGKO 211050Z 14006KT 080V210 CAVOK 31/14 Q1011

Decode

TAF

TAF LGKO 210500Z 2106/2206 01010KT 9999 SCT025 BECMG 2107/2109 14014KT

Decode

Destination Runways

ID Width Length Bearing (true) Bearing (mag) Surface Threshold Offset Overrun Length
14 148 ft / 45 m 7,923 ft / 2,415 m 148.29° 143.53° Asphalt 0 ft / 0 m 240 ft / 73 m
32 148 ft / 45 m 7,923 ft / 2,415 m 328.30° 323.54° Asphalt 0 ft / 0 m 205 ft / 62 m